TimeEST,TemperatureF,Dew PointF,Humidity,Sea Level PressureIn,VisibilityMPH,Wind Direction,Wind SpeedMPH,Gust SpeedMPH,PrecipitationIn,Events,Conditions,WindDirDegrees,DateUTC
12:56 AM,30.0,17.1,59,29.90,10.0,NW,19.6,25.3,N/A,,Overcast,310,2013-03-04 05:56:00
1:56 AM,28.9,15.1,56,29.90,10.0,NW,19.6,25.3,N/A,,Overcast,310,2013-03-04 06:56:00
2:56 AM,28.0,14.0,56,29.90,10.0,NNW,15.0,23.0,N/A,,Overcast,330,2013-03-04 07:56:00
3:56 AM,28.0,15.1,58,29.91,10.0,NW,19.6,-,N/A,,Overcast,310,2013-03-04 08:56:00
4:56 AM,27.0,15.1,61,29.93,10.0,WNW,19.6,26.5,N/A,,Overcast,300,2013-03-04 09:56:00
5:56 AM,27.0,15.1,61,29.94,10.0,WNW,16.1,27.6,N/A,,Overcast,300,2013-03-04 10:56:00
6:56 AM,26.6,15.8,64,29.94,10.0,WNW,17.3,25.3,N/A,,Overcast,300,2013-03-04 11:56:00
7:56 AM,27.0,16.0,63,29.97,10.0,NW,18.4,-,N/A,,Overcast,310,2013-03-04 12:56:00
8:56 AM,28.9,17.1,61,29.98,10.0,WNW,16.1,26.5,N/A,,Overcast,300,2013-03-04 13:56:00
9:56 AM,30.9,16.0,54,29.98,10.0,NW,21.9,27.6,N/A,,Overcast,320,2013-03-04 14:56:00
10:56 AM,30.9,16.0,54,29.98,10.0,NW,21.9,26.5,N/A,,Mostly Cloudy,310,2013-03-04 15:56:00
11:56 AM,32.0,16.0,52,29.97,10.0,NW,21.9,27.6,N/A,,Mostly Cloudy,310,2013-03-04 16:56:00
12:56 PM,35.1,17.1,48,29.96,10.0,WNW,24.2,29.9,N/A,,Mostly Cloudy,300,2013-03-04 17:56:00
1:56 PM,36.0,18.0,48,29.95,10.0,WNW,15.0,28.8,N/A,,Mostly Cloudy,300,2013-03-04 18:56:00
2:56 PM,37.9,18.0,45,29.94,10.0,NW,21.9,31.1,N/A,,Partly Cloudy,310,2013-03-04 19:56:00
3:56 PM,37.0,19.0,48,29.95,10.0,WNW,18.4,-,N/A,,Scattered Clouds,300,2013-03-04 20:56:00
4:56 PM,35.1,18.0,50,29.95,10.0,NW,18.4,-,N/A,,Partly Cloudy,310,2013-03-04 21:56:00
5:56 PM,33.1,18.0,54,29.98,10.0,NW,19.6,24.2,N/A,,Partly Cloudy,310,2013-03-04 22:56:00
6:56 PM,32.0,17.1,54,29.99,10.0,NW,10.4,16.1,N/A,,Partly Cloudy,310,2013-03-04 23:56:00
7:56 PM,30.9,17.1,57,30.00,10.0,NW,11.5,-,N/A,,Clear,320,2013-03-05 00:56:00
8:56 PM,30.0,17.1,59,30.01,10.0,NW,8.1,-,N/A,,Clear,320,2013-03-05 01:56:00
9:56 PM,27.0,16.0,63,30.02,10.0,NW,5.8,-,N/A,,Clear,320,2013-03-05 02:56:00
10:56 PM,28.9,17.1,61,30.03,10.0,WNW,3.5,-,N/A,,Clear,300,2013-03-05 03:56:00
11:56 PM,30.0,17.1,59,30.03,10.0,NNW,10.4,-,N/A,,Clear,330,2013-03-05 04:56:00